Time;durP1;ratioP1;P1;durP2;ratioP2;P2;SDS_P1;SDS_P2;PMS_P1;PMS_P2;Temp;Humidity;BMP_temperature;BMP_pressure;BME280_temperature;BME280_humidity;BME280_pressure;Samples;Min_cycle;Max_cycle;Signal;HPM_P1;HPM_P2
2022/10/26 00:00:48;;;;;;;;;;;;;;;11.72;95.36;99527.26;1651017;86;20936;-64
2022/10/26 00:03:17;;;;;;;;;;;;;;;11.58;95.91;99525.39;1624343;86;20178;-64
2022/10/26 00:05:43;;;;;;;;;;;;;;;11.55;96.19;99531.27;1657706;85;20282;-64
2022/10/26 00:08:10;;;;;;;;;;;;;;;11.53;96.24;99529.19;1624177;86;20184;-64
2022/10/26 00:10:37;;;;;;;;;;;;;;;11.52;96.42;99536.66;1626095;86;21526;-64
2022/10/26 00:13:05;;;;;;;;;;;;;;;11.52;96.46;99532.74;1642281;85;20611;-64
2022/10/26 00:15:31;;;;;;;;;;;;;;;11.51;96.42;99536.27;1631842;86;20423;-64
2022/10/26 00:17:57;;;;;;;;;;;;;;;11.59;96.30;99534.92;1673311;84;20105;-65
2022/10/26 00:20:24;;;;;;;;;;;;;;;11.49;96.40;99540.75;1673164;84;20137;-64
2022/10/26 00:22:50;;;;;;;;;;;;;;;11.48;96.48;99539.88;1673024;84;21111;-64
2022/10/26 00:25:17;;;;;;;;;;;;;;;11.47;96.43;99542.59;1670155;84;20600;-64
2022/10/26 00:27:43;;;;;;;;;;;;;;;11.47;96.46;99542.59;1671771;85;20130;-64
2022/10/26 00:30:10;;;;;;;;;;;;;;;11.46;96.47;99551.37;1670675;85;20164;-64
2022/10/26 00:32:36;;;;;;;;;;;;;;;11.46;96.60;99546.15;1669111;84;20185;-64
2022/10/26 00:35:03;;;;;;;;;;;;;;;11.49;96.48;99545.98;1675938;84;21121;-65
2022/10/26 00:37:29;;;;;;;;;;;;;;;11.50;96.50;99548.97;1670085;84;20531;-64
2022/10/26 00:39:56;;;;;;;;;;;;;;;11.51;96.49;99554.13;1680571;84;20148;-64
2022/10/26 00:42:23;;;;;;;;;;;;;;;11.56;96.42;99555.16;1671299;85;20109;-64
2022/10/26 00:44:57;;;;;;;;;;;;;;;11.50;96.55;99558.12;1676270;84;20187;-64
2022/10/26 00:47:30;;;;;;;;;;;;;;;11.51;96.63;99562.41;1671529;84;21919;-65
2022/10/26 00:49:58;;;;;;;;;;;;;;;11.52;96.64;99561.50;1671465;84;20171;-64
2022/10/26 00:52:24;;;;;;;;;;;;;;;11.54;96.71;99563.55;1668278;84;20531;-64
2022/10/26 00:54:53;;;;;;;;;;;;;;;11.55;96.78;99562.64;1667701;84;20727;-64
2022/10/26 00:57:19;;;;;;;;;;;;;;;11.54;96.74;99562.24;1661616;85;20192;-65
2022/10/26 00:59:47;;;;;;;;;;;;;;;11.58;96.68;99563.78;1663041;85;21296;-64
2022/10/26 01:02:13;;;;;;;;;;;;;;;11.58;96.77;99571.63;1651239;84;20194;-64
2022/10/26 01:04:39;;;;;;;;;;;;;;;11.60;96.79;99564.55;1651381;84;20169;-64
2022/10/26 01:07:07;;;;;;;;;;;;;;;11.61;96.80;99567.06;1657813;85;20567;-65
2022/10/26 01:09:35;;;;;;;;;;;;;;;11.63;96.78;99565.69;1655544;85;20224;-64
2022/10/26 01:12:01;;;;;;;;;;;;;;;11.60;96.79;99563.24;1653989;84;21108;-64
2022/10/26 01:14:28;;;;;;;;;;;;;;;11.59;96.80;99564.16;1660526;85;20443;-65
2022/10/26 01:17:28;;;;;;;;;;;;;;;11.57;96.81;99569.95;1655794;85;20178;-65
2022/10/26 01:20:18;;;;;;;;;;;;;;;11.56;96.80;99563.02;1653531;85;20128;-65
2022/10/26 01:23:06;;;;;;;;;;;;;;;11.57;96.81;99559.49;1657157;85;20147;-64
2022/10/26 01:26:00;;;;;;;;;;;;;;;11.57;96.83;99556.88;1587235;88;22846;-65
2022/10/26 01:28:30;;;;;;;;;;;;;;;11.56;96.80;99561.23;1616919;88;20171;-66
2022/10/26 01:30:58;;;;;;;;;;;;;;;11.54;96.78;99557.02;1595656;88;20247;-65
2022/10/26 01:33:34;;;;;;;;;;;;;;;11.52;96.76;99560.20;1577032;89;20215;-65
2022/10/26 01:36:16;;;;;;;;;;;;;;;11.52;96.83;99560.20;1615037;87;20467;-65
2022/10/26 01:38:55;;;;;;;;;;;;;;;11.51;96.82;99562.41;1596477;88;21208;-65
2022/10/26 01:41:44;;;;;;;;;;;;;;;11.50;96.88;99556.34;1582142;88;21024;-65
2022/10/26 01:44:16;;;;;;;;;;;;;;;11.51;96.88;99555.88;1609417;88;20434;-65
2022/10/26 01:46:45;;;;;;;;;;;;;;;11.52;96.88;99557.11;1610095;88;20131;-65
2022/10/26 01:49:12;;;;;;;;;;;;;;;11.53;96.94;99564.48;1608998;88;20664;-65
2022/10/26 01:51:42;;;;;;;;;;;;;;;11.55;96.96;99573.10;1625312;88;21586;-65
2022/10/26 01:54:08;;;;;;;;;;;;;;;11.56;96.90;99560.40;1600002;88;20262;-65
2022/10/26 01:56:38;;;;;;;;;;;;;;;11.73;96.26;99557.70;1597977;88;20158;-66
2022/10/26 01:59:29;;;;;;;;;;;;;;;11.73;96.32;99551.63;1574571;89;20138;-65
2022/10/26 02:02:02;;;;;;;;;;;;;;;11.75;96.02;99557.16;1593166;87;20167;-65
2022/10/26 02:04:59;;;;;;;;;;;;;;;11.75;96.05;99558.48;1630669;87;22092;-65
2022/10/26 02:07:38;;;;;;;;;;;;;;;11.76;96.00;99557.56;1592907;88;20132;-65
2022/10/26 02:10:13;;;;;;;;;;;;;;;11.78;95.90;99567.93;1594278;88;20204;-64
2022/10/26 02:13:02;;;;;;;;;;;;;;;11.77;95.91;99567.09;1612507;86;20197;-64
2022/10/26 02:15:34;;;;;;;;;;;;;;;11.79;95.88;99570.47;1584386;89;20612;-65
2022/10/26 02:18:07;;;;;;;;;;;;;;;11.81;95.82;99572.98;1582272;89;21595;-65
2022/10/26 02:20:37;;;;;;;;;;;;;;;11.80;95.76;99570.84;1615406;87;20202;-66
2022/10/26 02:23:05;;;;;;;;;;;;;;;11.80;95.76;99565.61;1596658;88;20232;-66
2022/10/26 02:25:35;;;;;;;;;;;;;;;11.81;95.83;99570.38;1597688;88;20200;-65
2022/10/26 02:28:06;;;;;;;;;;;;;;;11.81;95.86;99576.45;1595584;88;20202;-66
2022/10/26 02:30:34;;;;;;;;;;;;;;;11.81;95.84;99573.83;1612320;87;22414;-65
2022/10/26 02:33:02;;;;;;;;;;;;;;;11.82;95.74;99570.77;1581069;89;20296;-65
2022/10/26 02:35:31;;;;;;;;;;;;;;;11.81;95.78;99565.98;1582225;89;20229;-65
2022/10/26 02:38:00;;;;;;;;;;;;;;;11.79;95.69;99573.09;1593023;88;20682;-65
2022/10/26 02:40:28;;;;;;;;;;;;;;;11.77;95.76;99574.94;1595381;88;20161;-65
2022/10/26 02:42:57;;;;;;;;;;;;;;;11.76;95.85;99575.88;1614630;87;21205;-66
2022/10/26 02:45:27;;;;;;;;;;;;;;;11.73;95.81;99581.25;1630569;87;20163;-65
2022/10/26 02:47:54;;;;;;;;;;;;;;;11.73;95.90;99581.25;1612259;87;20148;-65
2022/10/26 02:50:41;;;;;;;;;;;;;;;11.72;95.96;99571.72;1611847;87;20097;-65
2022/10/26 02:53:11;;;;;;;;;;;;;;;11.72;95.99;99578.27;1669068;84;20188;-66
2022/10/26 02:55:43;;;;;;;;;;;;;;;11.53;96.62;99578.87;1701008;83;21604;-65
2022/10/26 02:58:12;;;;;;;;;;;;;;;11.49;96.75;99585.20;1699698;83;20189;-64
2022/10/26 03:00:39;;;;;;;;;;;;;;;11.49;96.89;99578.20;1672597;83;20607;-66
2022/10/26 03:03:05;;;;;;;;;;;;;;;11.46;96.87;99587.98;1670044;84;20097;-65
2022/10/26 03:05:32;;;;;;;;;;;;;;;11.51;96.82;99587.25;1671431;84;20174;-66
2022/10/26 03:07:59;;;;;;;;;;;;;;;11.41;96.99;99582.52;1679401;83;21100;-65
2022/10/26 03:10:26;;;;;;;;;;;;;;;11.42;96.93;99581.58;1676996;83;20150;-65
2022/10/26 03:12:52;;;;;;;;;;;;;;;11.41;97.05;99586.44;1701690;83;21031;-65
2022/10/26 03:15:18;;;;;;;;;;;;;;;11.38;97.12;99580.06;1701359;83;20160;-65
2022/10/26 03:17:45;;;;;;;;;;;;;;;11.39;97.13;99588.75;1695994;83;20222;-65
2022/10/26 03:20:11;;;;;;;;;;;;;;;11.38;97.16;99593.14;1699433;83;21207;-65
2022/10/26 03:22:38;;;;;;;;;;;;;;;11.37;97.21;99591.46;1702229;83;20151;-65
2022/10/26 03:25:05;;;;;;;;;;;;;;;11.36;97.24;99598.90;1700668;83;20109;-65
2022/10/26 03:27:32;;;;;;;;;;;;;;;11.33;97.20;99595.14;1699778;83;20147;-65
2022/10/26 03:29:58;;;;;;;;;;;;;;;11.32;97.08;99602.61;1699830;83;20174;-65
2022/10/26 03:32:24;;;;;;;;;;;;;;;11.33;97.06;99598.23;1702484;84;22380;-65
2022/10/26 03:34:51;;;;;;;;;;;;;;;11.31;97.01;99604.83;1701276;83;20136;-66
2022/10/26 03:37:17;;;;;;;;;;;;;;;11.31;96.96;99599.59;1699191;83;20219;-65
2022/10/26 03:39:44;;;;;;;;;;;;;;;11.28;97.04;99608.91;1668750;84;20812;-66
2022/10/26 03:42:10;;;;;;;;;;;;;;;11.25;97.13;99612.98;1702189;83;20095;-65
2022/10/26 03:44:38;;;;;;;;;;;;;;;11.24;97.03;99615.23;1700886;83;22476;-65
2022/10/26 03:47:04;;;;;;;;;;;;;;;11.38;96.47;99615.36;1699856;83;20432;-65
2022/10/26 03:49:30;;;;;;;;;;;;;;;11.25;96.84;99614.30;1702229;83;20451;-65
2022/10/26 03:51:57;;;;;;;;;;;;;;;11.22;97.09;99615.77;1702128;83;20175;-65
2022/10/26 03:54:24;;;;;;;;;;;;;;;11.36;96.31;99622.42;1702434;83;20178;-65
2022/10/26 03:56:51;;;;;;;;;;;;;;;11.42;95.86;99615.56;1673126;84;20506;-66
2022/10/26 03:59:18;;;;;;;;;;;;;;;11.38;95.99;99624.98;1700392;83;20291;-65
2022/10/26 04:01:44;;;;;;;;;;;;;;;11.25;96.44;99614.30;1702984;82;20111;-65
2022/10/26 04:04:11;;;;;;;;;;;;;;;11.23;96.78;99624.01;1671219;84;20201;-65
2022/10/26 04:06:37;;;;;;;;;;;;;;;11.26;96.71;99626.47;1692229;83;20214;-65
2022/10/26 04:09:04;;;;;;;;;;;;;;;11.13;97.03;99627.54;1682591;83;21958;-65
2022/10/26 04:11:30;;;;;;;;;;;;;;;11.28;96.46;99627.20;1689863;83;20101;-65
2022/10/26 04:14:00;;;;;;;;;;;;;;;11.19;96.46;99631.14;1705064;83;20105;-64
2022/10/26 04:16:26;;;;;;;;;;;;;;;11.25;96.43;99627.37;1700980;83;20144;-65
2022/10/26 04:18:53;;;;;;;;;;;;;;;11.23;96.46;99625.31;1701961;83;20211;-64
2022/10/26 04:21:19;;;;;;;;;;;;;;;11.15;96.51;99634.01;1701185;83;20910;-64
2022/10/26 04:23:45;;;;;;;;;;;;;;;11.22;96.41;99632.75;1689691;83;20121;-65
2022/10/26 04:26:11;;;;;;;;;;;;;;;11.20;96.25;99631.98;1703909;82;20494;-65
2022/10/26 04:28:38;;;;;;;;;;;;;;;11.22;96.19;99634.06;1706435;82;20097;-65
2022/10/26 04:31:04;;;;;;;;;;;;;;;11.20;96.17;99630.67;1670997;84;20178;-65
2022/10/26 04:33:30;;;;;;;;;;;;;;;11.20;96.17;99626.75;1692230;83;21257;-65
2022/10/26 04:35:59;;;;;;;;;;;;;;;11.10;96.44;99622.94;1697465;83;20297;-67
2022/10/26 04:38:26;;;;;;;;;;;;;;;11.09;96.22;99619.92;1692271;83;20209;-65
2022/10/26 04:40:52;;;;;;;;;;;;;;;11.06;96.36;99621.39;1702040;83;20566;-66
2022/10/26 04:43:19;;;;;;;;;;;;;;;11.10;95.90;99624.25;1702847;82;20829;-65
2022/10/26 04:45:45;;;;;;;;;;;;;;;11.01;96.33;99621.64;1672569;84;21107;-65
2022/10/26 04:48:12;;;;;;;;;;;;;;;11.00;96.19;99624.31;1672261;84;20155;-65
2022/10/26 04:50:39;;;;;;;;;;;;;;;11.00;96.21;99620.40;1704465;83;20544;-66
2022/10/26 04:53:07;;;;;;;;;;;;;;;10.98;96.14;99626.56;1719093;82;20441;-65
2022/10/26 04:55:34;;;;;;;;;;;;;;;10.83;96.75;99629.92;1723455;81;20157;-65
2022/10/26 04:58:01;;;;;;;;;;;;;;;10.77;97.01;99629.39;1727289;82;21386;-65
2022/10/26 05:00:29;;;;;;;;;;;;;;;10.86;96.57;99620.63;1727479;82;20156;-65
2022/10/26 05:02:59;;;;;;;;;;;;;;;10.84;96.60;99622.48;1724157;82;20183;-65
2022/10/26 05:05:26;;;;;;;;;;;;;;;10.82;96.29;99624.33;1724805;82;20152;-65
2022/10/26 05:07:56;;;;;;;;;;;;;;;10.80;96.03;99627.93;1695474;82;20178;-66
2022/10/26 05:10:24;;;;;;;;;;;;;;;10.62;96.24;99640.14;1722791;82;21006;-65
2022/10/26 05:12:54;;;;;;;;;;;;;;;10.66;96.12;99640.36;1728006;82;20161;-64
2022/10/26 05:15:21;;;;;;;;;;;;;;;10.62;96.13;99641.45;1691867;84;20191;-66
2022/10/26 05:17:56;;;;;;;;;;;;;;;10.42;96.88;99641.08;1720699;82;20172;-66
2022/10/26 05:20:28;;;;;;;;;;;;;;;10.42;97.01;99641.95;1685313;82;20524;-66
2022/10/26 05:22:54;;;;;;;;;;;;;;;10.41;97.29;99645.92;1736609;82;21397;-66
2022/10/26 05:25:20;;;;;;;;;;;;;;;10.41;97.60;99648.06;1725793;81;20161;-65
2022/10/26 05:27:47;;;;;;;;;;;;;;;10.45;97.66;99652.70;1727228;82;20100;-66
2022/10/26 05:30:13;;;;;;;;;;;;;;;10.46;97.68;99655.22;1726846;81;20144;-66
2022/10/26 05:32:39;;;;;;;;;;;;;;;10.51;97.70;99651.09;1727506;82;20487;-66
2022/10/26 05:35:06;;;;;;;;;;;;;;;10.55;97.69;99654.39;1723460;82;21417;-65
2022/10/26 05:37:33;;;;;;;;;;;;;;;10.55;97.79;99659.61;1723769;82;20156;-66
2022/10/26 05:39:59;;;;;;;;;;;;;;;10.56;97.81;99669.12;1723564;81;20150;-66
2022/10/26 05:42:26;;;;;;;;;;;;;;;10.59;97.90;99669.01;1728785;82;21751;-66
2022/10/26 05:44:52;;;;;;;;;;;;;;;10.59;97.90;99674.23;1688092;83;20146;-66
2022/10/26 05:47:18;;;;;;;;;;;;;;;10.64;97.87;99677.44;1725328;82;21293;-66
2022/10/26 05:49:45;;;;;;;;;;;;;;;10.70;97.79;99680.63;1744625;82;20091;-66
2022/10/26 05:52:11;;;;;;;;;;;;;;;10.71;97.82;99676.23;1738575;81;20160;-66
2022/10/26 05:54:38;;;;;;;;;;;;;;;10.74;97.98;99682.61;1716123;82;20089;-66
2022/10/26 05:57:07;;;;;;;;;;;;;;;10.77;97.99;99681.16;1722484;82;20165;-66
2022/10/26 05:59:34;;;;;;;;;;;;;;;10.80;98.00;99681.01;1717175;83;22117;-66
2022/10/26 06:02:04;;;;;;;;;;;;;;;10.79;97.83;99681.94;1725910;82;20121;-66
2022/10/26 06:04:37;;;;;;;;;;;;;;;10.79;97.80;99684.55;1708922;82;20115;-66
2022/10/26 06:07:12;;;;;;;;;;;;;;;10.77;97.85;99682.93;1709372;82;21134;-66
2022/10/26 06:09:40;;;;;;;;;;;;;;;10.75;97.71;99689.52;1706463;82;20126;-66
2022/10/26 06:12:08;;;;;;;;;;;;;;;10.73;97.80;99688.77;1710225;82;21087;-66
2022/10/26 06:14:35;;;;;;;;;;;;;;;10.73;97.70;99684.85;1723260;82;20100;-66
2022/10/26 06:17:29;;;;;;;;;;;;;;;10.76;97.79;99684.70;1672812;84;20144;-66
2022/10/26 06:19:59;;;;;;;;;;;;;;;10.79;98.02;99692.38;1689171;84;20085;-66
2022/10/26 06:23:00;;;;;;;;;;;;;;;10.87;98.14;99690.72;1682356;84;20091;-66
2022/10/26 06:25:39;;;;;;;;;;;;;;;10.91;98.10;99690.47;1687717;83;23329;-66
2022/10/26 06:28:21;;;;;;;;;;;;;;;10.95;97.96;99686.80;1689402;84;20463;-65
2022/10/26 06:30:47;;;;;;;;;;;;;;;11.06;97.96;99690.20;1683518;84;20240;-66
2022/10/26 06:33:14;;;;;;;;;;;;;;;11.38;97.89;99688.55;1715479;82;20152;-66
2022/10/26 06:35:52;;;;;;;;;;;;;;;11.61;97.58;99689.14;1715417;82;20502;-66
2022/10/26 06:38:21;;;;;;;;;;;;;;;11.75;97.38;99695.80;1664197;85;21139;-66
2022/10/26 06:40:50;;;;;;;;;;;;;;;11.93;97.10;99686.62;1670249;85;20101;-66
2022/10/26 06:43:25;;;;;;;;;;;;;;;12.06;97.09;99692.42;1670706;85;20215;-66
2022/10/26 06:45:55;;;;;;;;;;;;;;;12.20;96.98;99699.53;1668810;85;20204;-66
2022/10/26 06:48:24;;;;;;;;;;;;;;;12.13;96.75;99704.73;1665805;85;21044;-65
2022/10/26 06:50:54;;;;;;;;;;;;;;;12.17;97.15;99703.63;1672418;85;21110;-65
2022/10/26 06:53:30;;;;;;;;;;;;;;;12.20;97.40;99708.70;1661021;84;20315;-65
2022/10/26 06:55:58;;;;;;;;;;;;;;;12.22;97.00;99710.77;1653320;85;20208;-65
2022/10/26 06:58:27;;;;;;;;;;;;;;;12.26;96.32;99721.45;1655531;85;20156;-65
2022/10/26 07:00:54;;;;;;;;;;;;;;;12.18;97.13;99718.39;1653763;85;20227;-65
2022/10/26 07:03:21;;;;;;;;;;;;;;;12.24;97.44;99720.70;1653518;85;21133;-65
2022/10/26 07:05:48;;;;;;;;;;;;;;;12.22;97.33;99719.94;1653248;85;20163;-66
2022/10/26 07:08:14;;;;;;;;;;;;;;;12.20;97.24;99721.78;1653531;84;20164;-65
2022/10/26 07:10:41;;;;;;;;;;;;;;;12.26;97.17;99729.30;1652066;85;20144;-65
2022/10/26 07:13:09;;;;;;;;;;;;;;;12.25;97.04;99727.62;1653768;85;20148;-65
2022/10/26 07:15:36;;;;;;;;;;;;;;;12.22;97.25;99726.95;1697188;82;21175;-65
2022/10/26 07:18:05;;;;;;;;;;;;;;;12.35;97.16;99732.34;1710849;82;20147;-65
2022/10/26 07:20:34;;;;;;;;;;;;;;;12.38;96.89;99735.67;1712955;82;20173;-65
2022/10/26 07:23:01;;;;;;;;;;;;;;;12.35;97.38;99737.59;1712700;82;20533;-65
2022/10/26 07:25:28;;;;;;;;;;;;;;;12.60;96.87;99732.69;1752409;81;20117;-65
2022/10/26 07:27:58;;;;;;;;;;;;;;;12.82;96.96;99739.36;1709892;82;21528;-65
2022/10/26 07:30:27;;;;;;;;;;;;;;;13.03;96.90;99742.09;1750029;81;20176;-65
2022/10/26 07:33:05;;;;;;;;;;;;;;;13.20;96.69;99740.64;1684358;83;20205;-67
2022/10/26 07:35:32;;;;;;;;;;;;;;;13.29;96.35;99741.08;1750077;81;20428;-64
2022/10/26 07:38:00;;;;;;;;;;;;;;;13.25;96.59;99748.70;1746775;81;20171;-66
2022/10/26 07:40:27;;;;;;;;;;;;;;;13.35;96.01;99743.34;1746456;81;21285;-65
2022/10/26 07:42:56;;;;;;;;;;;;;;;13.37;96.07;99751.97;1743655;81;20171;-65
2022/10/26 07:45:22;;;;;;;;;;;;;;;13.57;96.58;99756.88;1743708;81;20140;-65
2022/10/26 07:47:49;;;;;;;;;;;;;;;13.77;96.37;99752.23;1712235;82;20160;-65
2022/10/26 07:50:16;;;;;;;;;;;;;;;13.90;95.89;99757.13;1709737;82;20166;-66
2022/10/26 07:52:42;;;;;;;;;;;;;;;13.95;95.70;99751.14;1742144;81;21365;-67
2022/10/26 07:55:11;;;;;;;;;;;;;;;13.93;95.46;99755.63;1717618;82;20322;-66
2022/10/26 07:57:37;;;;;;;;;;;;;;;13.92;95.38;99752.64;1694374;84;20097;-66
2022/10/26 08:00:05;;;;;;;;;;;;;;;13.95;95.45;99761.63;1731365;81;20229;-66
2022/10/26 08:02:32;;;;;;;;;;;;;;;13.95;95.20;99760.33;1687009;83;20200;-66
2022/10/26 08:04:58;;;;;;;;;;;;;;;13.93;95.26;99756.94;1698022;83;21441;-66
2022/10/26 08:07:25;;;;;;;;;;;;;;;13.79;95.98;99763.48;1697150;83;20414;-66
2022/10/26 08:09:52;;;;;;;;;;;;;;;13.72;95.63;99768.23;1722546;82;20128;-66
2022/10/26 08:12:18;;;;;;;;;;;;;;;13.53;95.29;99768.51;1723954;82;20406;-66
2022/10/26 08:14:45;;;;;;;;;;;;;;;13.45;95.56;99760.23;1721849;82;20458;-66
2022/10/26 08:17:12;;;;;;;;;;;;;;;13.42;95.65;99768.29;1722362;82;21541;-66
2022/10/26 08:19:38;;;;;;;;;;;;;;;13.36;95.22;99769.49;1722267;82;20196;-66
2022/10/26 08:22:05;;;;;;;;;;;;;;;13.32;95.87;99769.75;1725973;81;20172;-66
2022/10/26 08:24:31;;;;;;;;;;;;;;;13.32;95.81;99769.75;1715328;82;20143;-66
2022/10/26 08:26:58;;;;;;;;;;;;;;;13.32;95.34;99776.30;1729814;81;20142;-66
2022/10/26 08:29:24;;;;;;;;;;;;;;;13.30;95.39;99776.84;1730879;81;21883;-66
2022/10/26 08:31:51;;;;;;;;;;;;;;;13.26;95.56;99781.44;1732357;81;20100;-65
2022/10/26 08:34:17;;;;;;;;;;;;;;;13.27;95.96;99783.58;1693184;83;20103;-66
2022/10/26 08:36:43;;;;;;;;;;;;;;;13.34;95.85;99783.62;1699503;83;20161;-66
2022/10/26 08:39:10;;;;;;;;;;;;;;;13.34;95.84;99784.46;1701194;84;20189;-65
2022/10/26 08:41:39;;;;;;;;;;;;;;;13.35;95.65;99787.92;1693782;84;21153;-66
2022/10/26 08:44:24;;;;;;;;;;;;;;;13.37;95.81;99792.63;1693737;84;20495;-66
2022/10/26 08:46:57;;;;;;;;;;;;;;;13.34;95.40;99784.46;1695672;83;20087;-65
2022/10/26 08:49:36;;;;;;;;;;;;;;;13.36;95.71;99792.22;1723152;82;20143;-66
2022/10/26 08:52:04;;;;;;;;;;;;;;;13.52;96.21;99785.16;1689958;83;20153;-66
2022/10/26 08:54:46;;;;;;;;;;;;;;;13.69;95.97;99785.95;1692424;83;21185;-66
2022/10/26 08:57:21;;;;;;;;;;;;;;;13.78;95.28;99782.33;1710558;81;20213;-66
2022/10/26 09:00:18;;;;;;;;;;;;;;;13.80;95.19;99789.63;1724054;82;20573;-66
2022/10/26 09:02:51;;;;;;;;;;;;;;;13.75;94.66;99786.45;1697762;83;20520;-65
2022/10/26 09:05:36;;;;;;;;;;;;;;;13.78;94.91;99793.27;1669992;84;20099;-66
2022/10/26 09:08:30;;;;;;;;;;;;;;;13.85;95.25;99797.23;1634689;85;21635;-65
2022/10/26 09:11:18;;;;;;;;;;;;;;;14.06;95.39;99801.20;1636475;85;20439;-67
2022/10/26 09:14:00;;;;;;;;;;;;;;;14.35;95.42;99798.58;1637081;85;20212;-70
2022/10/26 09:16:36;;;;;;;;;;;;;;;14.49;94.94;99803.82;1637725;85;20257;-69
2022/10/26 09:19:14;;;;;;;;;;;;;;;14.62;94.56;99803.08;1632184;85;20234;-68
2022/10/26 09:21:53;;;;;;;;;;;;;;;14.76;95.06;99803.08;1632267;86;21086;-71
2022/10/26 09:24:31;;;;;;;;;;;;;;;14.95;94.66;99803.56;1630126;86;20142;-71
2022/10/26 09:27:16;;;;;;;;;;;;;;;15.04;94.34;99805.23;1649468;86;20149;-69
2022/10/26 09:29:42;;;;;;;;;;;;;;;15.17;94.44;99810.08;1652815;86;20295;-70
2022/10/26 09:32:20;;;;;;;;;;;;;;;15.18;93.46;99809.16;1627825;87;20131;-69
2022/10/26 09:34:52;;;;;;;;;;;;;;;15.08;93.13;99805.42;1645907;85;21206;-68
2022/10/26 09:37:25;;;;;;;;;;;;;;;14.95;92.34;99811.45;1659399;86;20198;-67
2022/10/26 09:40:06;;;;;;;;;;;;;;;14.70;92.26;99811.33;1651940;85;20444;-67
2022/10/26 09:42:39;;;;;;;;;;;;;;;14.52;92.32;99816.80;1670567;84;20226;-67
2022/10/26 09:45:15;;;;;;;;;;;;;;;14.38;92.92;99806.27;1693149;84;20514;-68
2022/10/26 09:47:45;;;;;;;;;;;;;;;14.38;92.95;99813.31;1691757;84;21077;-66
2022/10/26 09:50:27;;;;;;;;;;;;;;;14.46;92.61;99814.52;1696630;83;20535;-67
2022/10/26 09:52:53;;;;;;;;;;;;;;;14.49;92.26;99821.38;1717287;83;21573;-66
2022/10/26 09:55:21;;;;;;;;;;;;;;;14.59;92.32;99826.47;1679766;84;20655;-67
2022/10/26 09:57:50;;;;;;;;;;;;;;;14.61;91.35;99827.67;1669695;84;20097;-67
2022/10/26 10:00:20;;;;;;;;;;;;;;;14.50;91.03;99827.83;1708637;83;21443;-68
2022/10/26 10:02:54;;;;;;;;;;;;;;;14.40;90.26;99825.41;1697321;83;20435;-67
2022/10/26 10:05:26;;;;;;;;;;;;;;;14.39;90.31;99836.84;1697867;83;20115;-67
2022/10/26 10:08:15;;;;;;;;;;;;;;;14.25;91.36;99832.90;1698309;84;20123;-67
2022/10/26 10:10:58;;;;;;;;;;;;;;;14.39;90.57;99834.22;1702867;82;20426;-68
2022/10/26 10:13:27;;;;;;;;;;;;;;;14.42;91.07;99844.53;1702878;83;21136;-66
2022/10/26 10:15:56;;;;;;;;;;;;;;;14.53;90.84;99838.17;1702726;83;20808;-67
2022/10/26 10:18:23;;;;;;;;;;;;;;;14.67;90.53;99845.69;1697514;82;20181;-67
2022/10/26 10:20:55;;;;;;;;;;;;;;;14.68;90.00;99842.14;1698029;83;20482;-67
2022/10/26 10:23:30;;;;;;;;;;;;;;;14.79;90.38;99844.94;1695124;83;20467;-67
2022/10/26 10:26:06;;;;;;;;;;;;;;;14.89;89.84;99841.25;1694849;81;21762;-67
2022/10/26 10:28:32;;;;;;;;;;;;;;;14.87;89.68;99844.43;1695760;83;20408;-68
2022/10/26 10:31:02;;;;;;;;;;;;;;;15.05;89.94;99847.70;1694333;83;20178;-68
2022/10/26 10:33:39;;;;;;;;;;;;;;;15.15;89.78;99851.41;1698172;82;20165;-66
2022/10/26 10:36:09;;;;;;;;;;;;;;;15.17;89.46;99853.48;1695832;83;20107;-69
2022/10/26 10:38:40;;;;;;;;;;;;;;;15.07;89.14;99844.48;1691735;83;21854;-69
2022/10/26 10:41:10;;;;;;;;;;;;;;;15.08;89.67;99852.76;1694110;83;20107;-68
2022/10/26 10:43:40;;;;;;;;;;;;;;;15.21;89.93;99849.72;1697165;83;20104;-68
2022/10/26 10:46:07;;;;;;;;;;;;;;;15.37;90.10;99851.70;1683877;83;20119;-68
2022/10/26 10:48:33;;;;;;;;;;;;;;;15.65;89.55;99857.80;1688403;84;21013;-68
2022/10/26 10:51:02;;;;;;;;;;;;;;;15.65;88.65;99861.75;1688743;83;21055;-68
2022/10/26 10:53:44;;;;;;;;;;;;;;;15.69;88.49;99864.59;1699590;84;20181;-69
2022/10/26 10:56:38;;;;;;;;;;;;;;;15.52;88.41;99870.09;1691560;83;20131;-67
2022/10/26 10:59:29;;;;;;;;;;;;;;;15.53;88.60;99868.66;1698622;84;20654;-67
2022/10/26 11:02:12;;;;;;;;;;;;;;;15.28;88.01;99866.78;1686892;84;20117;-68
2022/10/26 11:05:02;;;;;;;;;;;;;;;15.23;88.40;99875.44;1663720;84;21770;-68
2022/10/26 11:07:31;;;;;;;;;;;;;;;15.11;88.31;99870.97;1706910;82;20238;-68
2022/10/26 11:10:01;;;;;;;;;;;;;;;15.11;88.63;99876.23;1710167;82;20106;-68
2022/10/26 11:12:31;;;;;;;;;;;;;;;15.12;88.62;99872.64;1667811;84;20135;-67
2022/10/26 11:15:06;;;;;;;;;;;;;;;15.06;88.12;99873.05;1673274;84;20550;-68
2022/10/26 11:17:39;;;;;;;;;;;;;;;14.97;88.22;99885.83;1707341;82;21338;-68
2022/10/26 11:20:12;;;;;;;;;;;;;;;14.99;88.24;99885.75;1710815;83;20489;-69
2022/10/26 11:22:41;;;;;;;;;;;;;;;15.08;88.39;99886.95;1709046;83;20097;-69
2022/10/26 11:25:23;;;;;;;;;;;;;;;15.19;88.27;99887.11;1707937;82;20135;-69
2022/10/26 11:28:03;;;;;;;;;;;;;;;15.41;88.73;99890.05;1709070;82;20195;-71
2022/10/26 11:30:31;;;;;;;;;;;;;;;15.76;87.85;99883.45;1710698;82;21033;-72
2022/10/26 11:33:04;;;;;;;;;;;;;;;15.74;86.99;99888.83;1714019;82;20097;-68
2022/10/26 11:35:36;;;;;;;;;;;;;;;15.65;86.76;99890.22;1710081;82;21292;-68
2022/10/26 11:38:24;;;;;;;;;;;;;;;15.63;86.79;99897.88;1709900;82;20164;-67
2022/10/26 11:41:12;;;;;;;;;;;;;;;15.40;86.96;99894.95;1677302;83;20235;-68
2022/10/26 11:43:58;;;;;;;;;;;;;;;15.39;86.76;99893.23;1714950;82;21076;-70
2022/10/26 11:46:33;;;;;;;;;;;;;;;15.15;87.07;99897.44;1712362;82;20182;-69
2022/10/26 11:49:31;;;;;;;;;;;;;;;14.93;86.96;99894.86;1714912;83;20081;-67
2022/10/26 11:52:16;;;;;;;;;;;;;;;14.89;86.82;99898.61;1714770;82;20117;-68
2022/10/26 11:54:47;;;;;;;;;;;;;;;14.91;86.73;99904.63;1714487;82;20562;-69
2022/10/26 11:57:14;;;;;;;;;;;;;;;15.00;86.73;99909.30;1710051;82;21857;-66
2022/10/26 11:59:53;;;;;;;;;;;;;;;15.13;86.90;99901.97;1708017;82;20150;-64
2022/10/26 12:02:21;;;;;;;;;;;;;;;15.10;86.36;99902.16;1709374;82;20195;-67
2022/10/26 12:04:52;;;;;;;;;;;;;;;15.08;86.42;99906.67;1701566;83;20146;-66
2022/10/26 12:07:22;;;;;;;;;;;;;;;15.11;86.22;99914.36;1703764;83;20207;-67
2022/10/26 12:09:49;;;;;;;;;;;;;;;15.05;85.96;99910.33;1708974;83;21081;-67
2022/10/26 12:12:31;;;;;;;;;;;;;;;14.96;85.84;99906.50;1705850;83;20205;-69
2022/10/26 12:15:19;;;;;;;;;;;;;;;14.87;85.34;99909.70;1699734;83;20171;-67
2022/10/26 12:18:12;;;;;;;;;;;;;;;14.67;85.44;99917.48;1667222;84;20193;-67
2022/10/26 12:21:02;;;;;;;;;;;;;;;14.46;85.44;99911.72;1673916;84;20204;-66
2022/10/26 12:23:30;;;;;;;;;;;;;;;14.31;86.21;99904.75;1678985;84;21200;-66
2022/10/26 12:26:17;;;;;;;;;;;;;;;14.48;85.83;99907.23;1674691;84;20105;-66
2022/10/26 12:28:43;;;;;;;;;;;;;;;14.57;85.65;99905.02;1666418;84;20175;-65
2022/10/26 12:31:33;;;;;;;;;;;;;;;14.58;85.38;99896.19;1679901;84;20436;-66
2022/10/26 12:34:00;;;;;;;;;;;;;;;14.34;85.63;99907.22;1669177;84;20109;-66
2022/10/26 12:36:56;;;;;;;;;;;;;;;14.12;85.89;99908.13;1677234;84;22386;-66
2022/10/26 12:39:42;;;;;;;;;;;;;;;14.03;85.95;99906.41;1692380;83;20214;-66
2022/10/26 12:42:15;;;;;;;;;;;;;;;13.85;85.92;99902.22;1696619;83;20206;-67
2022/10/26 12:44:48;;;;;;;;;;;;;;;13.80;86.25;99901.63;1696538;83;20177;-67
2022/10/26 12:47:31;;;;;;;;;;;;;;;13.86;86.10;99909.14;1694972;83;20455;-66
2022/10/26 12:50:02;;;;;;;;;;;;;;;13.89;86.03;99905.03;1694812;83;21131;-66
2022/10/26 12:53:00;;;;;;;;;;;;;;;13.87;86.30;99900.36;1693001;82;20110;-66
2022/10/26 12:55:41;;;;;;;;;;;;;;;13.87;86.12;99899.05;1691487;82;20165;-66
2022/10/26 12:58:20;;;;;;;;;;;;;;;14.05;85.31;99905.83;1699546;84;20522;-66
2022/10/26 13:00:56;;;;;;;;;;;;;;;13.96;85.17;99904.22;1700833;84;20130;-67
2022/10/26 13:03:52;;;;;;;;;;;;;;;13.83;85.99;99910.64;1688351;83;21045;-67
2022/10/26 13:06:43;;;;;;;;;;;;;;;13.82;85.95;99912.89;1684510;83;20147;-67
2022/10/26 13:09:19;;;;;;;;;;;;;;;13.91;86.09;99912.35;1691399;84;20100;-67
2022/10/26 13:11:56;;;;;;;;;;;;;;;13.96;86.11;99916.87;1697540;84;20092;-67